createdAt,value
2018-05-12T00:00:28.890Z,28.60
2018-05-12T00:02:57.821Z,28.50
2018-05-12T00:05:27.778Z,28.60
2018-05-12T00:07:56.882Z,28.50
2018-05-12T00:10:26.111Z,28.50
2018-05-12T00:12:57.019Z,28.50
2018-05-12T00:15:27.661Z,28.50
2018-05-12T00:17:59.288Z,28.60
2018-05-12T00:20:29.850Z,28.60
2018-05-12T00:22:59.982Z,28.50
2018-05-12T00:25:29.231Z,28.50
2018-05-12T00:27:59.370Z,28.40
2018-05-12T00:30:33.532Z,28.40
2018-05-12T00:33:03.706Z,28.40
2018-05-12T00:35:32.918Z,28.40
2018-05-12T00:38:02.887Z,28.40
2018-05-12T00:40:32.031Z,28.30
2018-05-12T00:43:01.184Z,28.40
2018-05-12T00:45:32.345Z,28.40
2018-05-12T00:48:01.402Z,28.40
2018-05-12T00:50:30.791Z,28.40
2018-05-12T00:53:01.642Z,28.40
2018-05-12T00:55:31.883Z,28.40
2018-05-12T00:58:00.814Z,28.30
2018-05-12T01:00:30.391Z,28.40
2018-05-12T01:02:59.530Z,28.30
2018-05-12T01:05:28.454Z,28.20
2018-05-12T01:07:58.208Z,28.20
2018-05-12T01:10:27.322Z,28.20
2018-05-12T01:12:56.214Z,28.10
2018-05-12T01:15:25.421Z,28.10
2018-05-12T01:17:54.406Z,28.00
2018-05-12T01:20:30.286Z,28.10
2018-05-12T01:23:00.387Z,28.20
2018-05-12T01:25:30.214Z,28.20
2018-05-12T01:27:59.592Z,28.20
2018-05-12T01:30:28.510Z,28.20
2018-05-12T01:32:58.450Z,28.20
2018-05-12T01:35:28.030Z,28.20
2018-05-12T01:37:57.906Z,28.10
2018-05-12T01:40:27.141Z,28.10
2018-05-12T01:42:57.075Z,28.10
2018-05-12T01:45:26.046Z,28.00
2018-05-12T01:47:56.290Z,28.10
2018-05-12T01:50:26.747Z,28.20
2018-05-12T01:52:55.813Z,28.10
2018-05-12T01:55:29.384Z,28.10
2018-05-12T01:57:59.341Z,28.00
2018-05-12T02:00:28.587Z,28.00
2018-05-12T02:02:58.222Z,28.10
2018-05-12T02:05:27.479Z,28.10
2018-05-12T02:07:56.669Z,28.10
2018-05-12T02:10:25.959Z,28.20
2018-05-12T02:12:56.706Z,28.20
2018-05-12T02:15:26.347Z,28.20
2018-05-12T02:17:56.459Z,28.10
2018-05-12T02:20:25.630Z,28.10
2018-05-12T02:23:04.895Z,28.10
2018-05-12T02:25:39.823Z,28.20
2018-05-12T02:28:09.171Z,28.20
2018-05-12T02:30:38.927Z,28.30
2018-05-12T02:33:10.123Z,28.30
2018-05-12T02:35:40.358Z,28.50
2018-05-12T02:38:10.290Z,28.50
2018-05-12T02:40:40.189Z,28.50
2018-05-12T02:43:09.619Z,28.50
2018-05-12T02:45:39.030Z,28.40
2018-05-12T02:48:08.963Z,28.60
2018-05-12T02:50:38.074Z,28.60
2018-05-12T02:53:08.139Z,28.70
2018-05-12T02:55:37.391Z,28.80
2018-05-12T02:58:06.527Z,28.80
2018-05-12T03:00:36.212Z,28.90
2018-05-12T03:03:06.183Z,29.00
2018-05-12T03:05:35.263Z,29.00
2018-05-12T03:08:04.597Z,29.00
2018-05-12T03:10:33.586Z,29.20
2018-05-12T03:13:02.650Z,29.30
2018-05-12T03:15:31.882Z,29.40
2018-05-12T03:18:00.750Z,29.50
2018-05-12T03:20:29.771Z,29.50
2018-05-12T03:22:59.127Z,29.60
2018-05-12T03:25:28.088Z,29.70
2018-05-12T03:27:57.058Z,29.80
2018-05-12T03:30:27.002Z,29.90
2018-05-12T03:32:56.749Z,30.20
2018-05-12T03:35:25.673Z,30.20
2018-05-12T03:37:54.835Z,30.30
2018-05-12T03:40:23.840Z,30.40
2018-05-12T03:42:54.203Z,30.50
2018-05-12T03:45:23.334Z,30.60
2018-05-12T03:47:53.174Z,31.10
2018-05-12T03:50:25.870Z,31.20
2018-05-12T03:52:56.201Z,31.20
2018-05-12T03:55:26.166Z,31.40
2018-05-12T03:57:55.301Z,31.40
2018-05-12T04:00:24.395Z,31.50
2018-05-12T04:02:54.105Z,31.90
2018-05-12T04:05:34.769Z,31.90
2018-05-12T04:08:15.120Z,32.20
2018-05-12T04:11:00.191Z,32.20
2018-05-12T04:13:30.058Z,32.30
2018-05-12T04:16:06.944Z,32.30
2018-05-12T04:18:54.626Z,32.50
2018-05-12T04:21:25.234Z,32.50
2018-05-12T04:23:54.428Z,32.80
2018-05-12T04:26:23.564Z,33.10
2018-05-12T04:28:53.071Z,33.10
2018-05-12T04:31:22.071Z,33.40
2018-05-12T04:33:52.043Z,33.80
2018-05-12T04:36:21.934Z,34.10
2018-05-12T04:38:50.929Z,34.00
2018-05-12T04:41:20.022Z,34.60
2018-05-12T04:43:49.353Z,34.70
2018-05-12T04:46:19.238Z,35.40
2018-05-12T04:48:48.311Z,35.40
2018-05-12T04:51:19.083Z,35.80
2018-05-12T04:53:48.133Z,35.80
2018-05-12T04:56:17.135Z,35.80
2018-05-12T04:58:47.383Z,35.90
2018-05-12T05:01:18.245Z,36.10
2018-05-12T05:03:47.826Z,36.00
2018-05-12T05:06:17.202Z,36.30
2018-05-12T05:08:46.959Z,36.70
2018-05-12T05:11:15.952Z,36.70
2018-05-12T05:13:45.010Z,37.00
2018-05-12T05:16:14.034Z,37.20
2018-05-12T05:18:43.198Z,37.20
2018-05-12T05:21:12.922Z,37.40
2018-05-12T05:23:41.942Z,37.40
2018-05-12T05:26:10.910Z,37.40
2018-05-12T05:28:40.067Z,37.30
2018-05-12T05:31:09.037Z,37.40
2018-05-12T05:33:37.978Z,37.20
2018-05-12T05:36:07.150Z,37.40
2018-05-12T05:38:36.120Z,37.70
2018-05-12T05:41:05.114Z,37.80
2018-05-12T05:43:34.342Z,38.00
2018-05-12T05:46:04.046Z,38.40
2018-05-12T05:48:33.095Z,38.40
2018-05-12T05:51:03.449Z,39.00
2018-05-12T05:53:34.190Z,39.00
2018-05-12T05:56:03.137Z,39.20
2018-05-12T05:58:32.376Z,39.50
2018-05-12T06:01:01.353Z,39.70
2018-05-12T06:03:30.362Z,40.00
2018-05-12T06:05:59.827Z,39.90
2018-05-12T06:08:28.987Z,40.10
2018-05-12T06:10:58.127Z,39.40
2018-05-12T06:13:28.119Z,39.20
2018-05-12T06:15:57.021Z,39.50
2018-05-12T06:18:26.850Z,39.70
2018-05-12T06:20:56.748Z,39.90
2018-05-12T06:23:25.952Z,39.90
2018-05-12T06:25:55.133Z,39.60
2018-05-12T06:28:24.705Z,39.90
2018-05-12T06:30:53.778Z,40.00
2018-05-12T06:33:22.902Z,39.80
2018-05-12T06:35:52.301Z,40.00
2018-05-12T06:38:22.340Z,40.60
2018-05-12T06:40:51.432Z,40.50
2018-05-12T06:43:20.698Z,40.90
2018-05-12T06:45:50.535Z,41.60
2018-05-12T06:48:19.855Z,41.50
2018-05-12T06:50:49.199Z,41.80
2018-05-12T06:53:18.223Z,41.50
2018-05-12T06:55:47.870Z,41.20
2018-05-12T06:58:17.323Z,41.70
2018-05-12T07:00:47.294Z,42.30
2018-05-12T07:03:16.494Z,42.20
2018-05-12T07:05:45.870Z,42.40
2018-05-12T07:08:14.934Z,41.60
2018-05-12T07:10:44.806Z,41.80
2018-05-12T07:13:14.738Z,41.90
2018-05-12T07:15:43.660Z,41.90
2018-05-12T07:18:12.591Z,41.30
2018-05-12T07:20:41.983Z,41.30
2018-05-12T07:23:12.386Z,41.00
2018-05-12T07:25:42.227Z,41.30
2018-05-12T07:28:11.607Z,41.30
2018-05-12T07:30:41.401Z,41.30
2018-05-12T07:33:10.470Z,41.30
2018-05-12T07:35:39.815Z,41.50
2018-05-12T07:38:08.922Z,41.60
2018-05-12T07:40:38.991Z,41.30
2018-05-12T07:43:08.445Z,41.30
2018-05-12T07:45:38.344Z,41.40
2018-05-12T07:48:08.175Z,41.30
2018-05-12T07:50:37.298Z,41.30
2018-05-12T07:53:06.294Z,41.40
2018-05-12T07:55:35.302Z,41.30
2018-05-12T07:58:06.522Z,41.40
2018-05-12T08:00:35.803Z,41.40
2018-05-12T08:03:05.501Z,41.40
2018-05-12T08:05:34.795Z,41.40
2018-05-12T08:08:03.997Z,41.30
2018-05-12T08:10:33.790Z,41.40
2018-05-12T08:13:02.823Z,41.50
2018-05-12T08:15:32.696Z,41.40
2018-05-12T08:18:02.613Z,41.20
2018-05-12T08:20:31.583Z,41.10
2018-05-12T08:23:02.140Z,41.40
2018-05-12T08:25:31.247Z,41.40
2018-05-12T08:28:01.126Z,41.60
2018-05-12T08:30:30.142Z,41.50
2018-05-12T08:32:59.419Z,41.60
2018-05-12T08:35:28.382Z,41.70
2018-05-12T08:37:57.274Z,41.70
2018-05-12T08:40:27.294Z,41.70
2018-05-12T08:42:56.139Z,41.70
2018-05-12T08:45:25.215Z,41.80
2018-05-12T08:47:54.735Z,41.80
2018-05-12T08:50:23.968Z,41.70
2018-05-12T08:52:53.880Z,41.70
2018-05-12T08:55:24.687Z,41.50
2018-05-12T08:57:53.613Z,41.50
2018-05-12T09:00:22.718Z,41.50
2018-05-12T09:02:51.793Z,41.40
2018-05-12T09:05:20.756Z,41.50
2018-05-12T09:07:49.718Z,41.40
2018-05-12T09:10:19.077Z,41.40
2018-05-12T09:12:48.010Z,41.30
2018-05-12T09:15:17.126Z,41.20
2018-05-12T09:17:46.891Z,41.10
2018-05-12T09:20:16.847Z,41.00
2018-05-12T09:22:46.043Z,40.90
2018-05-12T09:25:15.198Z,40.80
2018-05-12T09:27:44.290Z,40.60
2018-05-12T09:30:13.987Z,40.60
2018-05-12T09:32:43.302Z,40.60
2018-05-12T09:35:13.235Z,40.30
2018-05-12T09:37:42.174Z,40.40
2018-05-12T09:40:11.492Z,40.50
2018-05-12T09:42:40.513Z,40.30
2018-05-12T09:45:09.546Z,40.20
2018-05-12T09:47:39.601Z,40.20
2018-05-12T09:50:08.690Z,40.20
2018-05-12T09:52:38.363Z,40.10
2018-05-12T09:55:09.046Z,40.00
2018-05-12T09:57:39.031Z,40.00
2018-05-12T10:00:08.018Z,40.00
2018-05-12T10:02:37.289Z,40.20
2018-05-12T10:05:06.214Z,40.20
2018-05-12T10:07:35.238Z,40.10
2018-05-12T10:10:04.668Z,40.20
2018-05-12T10:12:33.870Z,40.20
2018-05-12T10:15:03.011Z,40.10
2018-05-12T10:17:32.238Z,40.00
2018-05-12T10:20:02.008Z,39.80
2018-05-12T10:22:32.138Z,39.80
2018-05-12T10:25:01.279Z,39.80
2018-05-12T10:27:30.266Z,39.80
2018-05-12T10:29:59.506Z,39.80
2018-05-12T10:32:28.533Z,40.00
2018-05-12T10:34:57.574Z,39.90
2018-05-12T10:37:27.582Z,39.90
2018-05-12T10:39:56.546Z,39.80
2018-05-12T10:42:26.436Z,39.90
2018-05-12T10:44:55.802Z,39.80
2018-05-12T10:47:24.878Z,39.90
2018-05-12T10:49:53.974Z,39.70
2018-05-12T10:52:23.254Z,39.70
2018-05-12T10:54:52.345Z,39.80
2018-05-12T10:57:21.339Z,39.90
2018-05-12T10:59:50.507Z,39.80
2018-05-12T11:02:19.519Z,39.80
2018-05-12T11:04:48.466Z,39.80
2018-05-12T11:07:17.594Z,39.80
2018-05-12T11:09:47.419Z,39.80
2018-05-12T11:12:16.561Z,39.80
2018-05-12T11:14:46.014Z,39.70
2018-05-12T11:17:14.938Z,39.70
2018-05-12T11:19:43.966Z,39.60
2018-05-12T11:22:13.953Z,39.70
2018-05-12T11:24:43.646Z,39.60
2018-05-12T11:27:12.590Z,39.60
2018-05-12T11:29:41.817Z,39.50
2018-05-12T11:32:11.169Z,39.50
2018-05-12T11:34:40.206Z,39.50
2018-05-12T11:37:09.558Z,39.50
2018-05-12T11:39:40.008Z,39.60
2018-05-12T11:42:09.495Z,39.60
2018-05-12T11:44:39.082Z,39.60
2018-05-12T11:47:07.974Z,39.60
2018-05-12T11:49:38.625Z,39.50
2018-05-12T11:52:08.641Z,39.50
2018-05-12T11:54:37.743Z,39.50
2018-05-12T11:57:07.886Z,39.40
2018-05-12T11:59:37.233Z,39.40
2018-05-12T12:02:06.641Z,39.40
2018-05-12T12:04:36.335Z,39.30
2018-05-12T12:07:05.471Z,39.30
2018-05-12T12:09:34.598Z,39.40
2018-05-12T12:12:03.806Z,39.30
2018-05-12T12:14:32.877Z,39.30
2018-05-12T12:17:03.963Z,39.30
2018-05-12T12:19:33.931Z,39.30
2018-05-12T12:22:04.110Z,39.20
2018-05-12T12:24:36.042Z,39.20
2018-05-12T12:27:04.967Z,39.30
2018-05-12T12:29:34.727Z,39.10
2018-05-12T12:32:05.254Z,39.10
2018-05-12T12:34:35.065Z,39.20
2018-05-12T12:37:04.883Z,39.00
2018-05-12T12:39:34.153Z,39.10
2018-05-12T12:42:03.269Z,39.10
2018-05-12T12:44:32.266Z,39.10
2018-05-12T12:47:01.411Z,39.10
2018-05-12T12:49:30.361Z,39.20
2018-05-12T12:51:59.246Z,39.20
2018-05-12T12:54:28.391Z,39.20
2018-05-12T12:56:58.298Z,39.30
2018-05-12T12:59:27.393Z,39.30
2018-05-12T13:01:56.775Z,39.20
2018-05-12T13:04:25.874Z,39.10
2018-05-12T13:06:55.881Z,39.00
2018-05-12T13:09:25.195Z,38.90
2018-05-12T13:11:55.188Z,38.80
2018-05-12T13:14:24.387Z,38.80
2018-05-12T13:16:53.281Z,38.80
2018-05-12T13:19:22.452Z,38.70
2018-05-12T13:21:51.586Z,38.60
2018-05-12T13:24:20.719Z,38.60
2018-05-12T13:26:51.626Z,38.50
2018-05-12T13:29:20.762Z,38.50
2018-05-12T13:31:49.806Z,38.40
2018-05-12T13:34:18.654Z,38.40
2018-05-12T13:36:47.774Z,38.30
2018-05-12T13:39:17.625Z,38.20
2018-05-12T13:41:47.269Z,38.20
2018-05-12T13:44:16.580Z,38.20
2018-05-12T13:46:45.721Z,38.20
2018-05-12T13:49:14.889Z,38.10
2018-05-12T13:51:44.267Z,38.10
2018-05-12T13:54:13.434Z,38.10
2018-05-12T13:56:42.466Z,38.00
2018-05-12T13:59:11.732Z,38.00
2018-05-12T14:01:41.809Z,37.90
2018-05-12T14:04:11.546Z,37.80
2018-05-12T14:06:40.621Z,37.80
2018-05-12T14:09:10.470Z,37.60
2018-05-12T14:11:39.672Z,37.60
2018-05-12T14:14:09.656Z,37.50
2018-05-12T14:16:38.622Z,37.40
2018-05-12T14:19:07.718Z,37.20
2018-05-12T14:21:37.054Z,37.10
2018-05-12T14:24:06.835Z,37.00
2018-05-12T14:26:35.906Z,37.00
2018-05-12T14:29:06.734Z,37.00
2018-05-12T14:31:36.650Z,36.90
2018-05-12T14:34:05.743Z,36.80
2018-05-12T14:36:35.150Z,36.80
2018-05-12T14:39:04.444Z,36.70
2018-05-12T14:41:33.384Z,36.70
2018-05-12T14:44:03.479Z,36.50
2018-05-12T14:46:34.120Z,36.50
2018-05-12T14:49:03.210Z,36.50
2018-05-12T14:51:32.746Z,36.50
2018-05-12T14:54:02.087Z,36.40
2018-05-12T14:56:31.286Z,36.40
2018-05-12T14:59:01.599Z,36.40
2018-05-12T15:01:30.812Z,36.40
2018-05-12T15:04:00.542Z,36.40
2018-05-12T15:06:29.770Z,36.40
2018-05-12T15:08:58.734Z,36.40
2018-05-12T15:11:27.730Z,36.40
2018-05-12T15:13:57.779Z,36.40
2018-05-12T15:16:27.540Z,36.30
2018-05-12T15:18:56.492Z,36.30
2018-05-12T15:21:25.904Z,36.30
2018-05-12T15:23:54.838Z,36.20
2018-05-12T15:26:23.839Z,36.20
2018-05-12T15:28:53.871Z,36.10
2018-05-12T15:31:24.294Z,36.10
2018-05-12T15:33:53.290Z,36.00
2018-05-12T15:36:23.465Z,36.00
2018-05-12T15:38:52.602Z,36.00
2018-05-12T15:41:21.701Z,36.00
2018-05-12T15:43:50.984Z,36.00
2018-05-12T15:46:20.602Z,36.00
2018-05-12T15:48:49.538Z,35.90
2018-05-12T15:51:18.991Z,36.00
2018-05-12T15:53:48.839Z,36.00
2018-05-12T15:56:18.805Z,36.00
2018-05-12T15:58:48.070Z,36.00
2018-05-12T16:01:17.098Z,35.90
2018-05-12T16:03:46.790Z,36.00
2018-05-12T16:06:15.886Z,35.90
2018-05-12T16:08:44.930Z,36.00
2018-05-12T16:11:13.874Z,35.90
2018-05-12T16:13:42.975Z,35.90
2018-05-12T16:16:12.258Z,36.00
2018-05-12T16:18:41.508Z,35.90
2018-05-12T16:21:10.838Z,35.90
2018-05-12T16:23:40.037Z,35.90
2018-05-12T16:26:09.738Z,35.90
2018-05-12T16:28:38.910Z,35.90
2018-05-12T16:31:07.670Z,36.00
2018-05-12T16:33:37.782Z,35.90
2018-05-12T16:36:07.274Z,35.90
2018-05-12T16:38:36.325Z,35.90
2018-05-12T16:41:07.816Z,35.90
2018-05-12T16:43:36.895Z,35.80
2018-05-12T16:46:05.915Z,35.80
2018-05-12T16:48:35.205Z,35.90
2018-05-12T16:51:05.232Z,35.90
2018-05-12T16:53:34.561Z,35.90
2018-05-12T16:56:03.549Z,35.90
2018-05-12T16:58:34.590Z,35.80
2018-05-12T17:01:03.667Z,35.80
2018-05-12T17:03:32.768Z,35.80
2018-05-12T17:06:02.566Z,35.80
2018-05-12T17:08:31.471Z,35.80
2018-05-12T17:11:02.245Z,35.80
2018-05-12T17:13:31.413Z,35.80
2018-05-12T17:16:00.459Z,35.80
2018-05-12T17:18:29.378Z,35.90
2018-05-12T17:20:58.539Z,35.90
2018-05-12T17:23:27.773Z,35.80
2018-05-12T17:25:57.604Z,35.70
2018-05-12T17:28:27.647Z,35.80
2018-05-12T17:30:56.742Z,35.70
2018-05-12T17:33:25.811Z,35.80
2018-05-12T17:35:55.766Z,35.70
2018-05-12T17:38:24.734Z,35.70
2018-05-12T17:40:54.666Z,35.70
2018-05-12T17:43:24.047Z,35.70
2018-05-12T17:45:53.956Z,35.60
2018-05-12T17:48:23.055Z,35.60
2018-05-12T17:50:52.946Z,35.50
2018-05-12T17:53:22.796Z,35.60
2018-05-12T17:55:52.889Z,35.60
2018-05-12T17:58:22.661Z,35.60
2018-05-12T18:00:52.288Z,35.70
2018-05-12T18:03:22.410Z,35.60
2018-05-12T18:05:51.391Z,35.60
2018-05-12T18:08:20.238Z,35.60
2018-05-12T18:10:49.469Z,35.60
2018-05-12T18:13:19.351Z,35.50
2018-05-12T18:15:49.162Z,35.30
2018-05-12T18:18:18.706Z,35.30
2018-05-12T18:20:47.770Z,35.40
2018-05-12T18:23:16.859Z,35.30
2018-05-12T18:25:45.987Z,35.30
2018-05-12T18:28:15.470Z,35.20
2018-05-12T18:30:45.590Z,35.20
2018-05-12T18:33:14.991Z,35.20
2018-05-12T18:35:44.646Z,35.10
2018-05-12T18:38:15.513Z,35.10
2018-05-12T18:40:44.429Z,35.10
2018-05-12T18:43:13.260Z,35.00
2018-05-12T18:45:42.367Z,34.90
2018-05-12T18:48:12.196Z,34.90
2018-05-12T18:50:41.318Z,34.80
2018-05-12T18:53:12.174Z,34.80
2018-05-12T18:55:41.750Z,34.80
2018-05-12T18:58:10.571Z,34.70
2018-05-12T19:00:39.253Z,34.70
2018-05-12T19:03:09.066Z,34.70
2018-05-12T19:05:37.946Z,34.70
2018-05-12T19:08:07.121Z,34.60
2018-05-12T19:10:36.368Z,34.50
2018-05-12T19:13:06.949Z,34.50
2018-05-12T19:15:36.113Z,34.50
2018-05-12T19:18:06.078Z,34.40
2018-05-12T19:20:34.894Z,34.40
2018-05-12T19:23:05.445Z,34.30
2018-05-12T19:25:35.827Z,34.30
2018-05-12T19:28:04.794Z,34.20
2018-05-12T19:30:34.162Z,34.30
2018-05-12T19:33:03.901Z,34.20
2018-05-12T19:35:32.859Z,34.20
2018-05-12T19:38:01.986Z,34.30
2018-05-12T19:40:30.873Z,34.20
2018-05-12T19:43:00.467Z,34.20
2018-05-12T19:45:30.606Z,34.20
2018-05-12T19:48:00.123Z,34.20
2018-05-12T19:50:28.878Z,34.20
2018-05-12T19:52:58.001Z,34.20
2018-05-12T19:55:27.746Z,34.10
2018-05-12T19:57:57.633Z,34.00
2018-05-12T20:00:26.663Z,34.10
2018-05-12T20:02:55.530Z,34.00
2018-05-12T20:05:24.382Z,34.00
2018-05-12T20:07:53.515Z,34.00
2018-05-12T20:10:22.369Z,34.00
2018-05-12T20:12:51.269Z,33.90
2018-05-12T20:15:21.586Z,33.80
2018-05-12T20:17:50.574Z,33.80
2018-05-12T20:20:19.569Z,33.80
2018-05-12T20:22:48.770Z,33.80
2018-05-12T20:25:17.761Z,33.80
2018-05-12T20:27:46.826Z,33.80
2018-05-12T20:30:16.609Z,33.80
2018-05-12T20:32:46.346Z,33.80
2018-05-12T20:35:16.003Z,33.80
2018-05-12T20:37:45.334Z,33.70
2018-05-12T20:40:15.115Z,33.80
2018-05-12T20:42:44.106Z,33.70
2018-05-12T20:45:13.188Z,33.80
2018-05-12T20:47:42.263Z,33.80
2018-05-12T20:50:11.279Z,33.80
2018-05-12T20:52:40.555Z,33.70
2018-05-12T20:55:09.594Z,33.60
2018-05-12T20:57:38.646Z,33.70
2018-05-12T21:00:08.537Z,33.60
2018-05-12T21:02:37.402Z,33.60
2018-05-12T21:05:06.295Z,33.60
2018-05-12T21:07:35.485Z,33.60
2018-05-12T21:10:04.383Z,33.60
2018-05-12T21:12:33.317Z,33.60
2018-05-12T21:15:02.370Z,33.60
2018-05-12T21:17:31.181Z,33.50
2018-05-12T21:20:00.603Z,33.60
2018-05-12T21:22:29.693Z,33.60
2018-05-12T21:24:59.353Z,33.50
2018-05-12T21:27:28.454Z,33.50
2018-05-12T21:29:57.666Z,33.50
2018-05-12T21:32:26.513Z,33.50
2018-05-12T21:34:55.536Z,33.50
2018-05-12T21:37:24.882Z,33.50
2018-05-12T21:39:54.395Z,33.40
2018-05-12T21:42:23.457Z,33.30
2018-05-12T21:44:52.458Z,33.40
2018-05-12T21:47:22.426Z,33.40
2018-05-12T21:49:51.424Z,33.40
2018-05-12T21:52:21.341Z,33.20
2018-05-12T21:54:50.169Z,33.20
2018-05-12T21:57:19.069Z,33.20
2018-05-12T21:59:48.167Z,33.20
2018-05-12T22:02:18.186Z,33.20
2018-05-12T22:04:47.175Z,33.30
2018-05-12T22:07:17.062Z,33.20
2018-05-12T22:09:45.913Z,33.20
2018-05-12T22:12:14.784Z,33.20
2018-05-12T22:14:43.798Z,33.20
2018-05-12T22:17:12.866Z,33.10
2018-05-12T22:19:41.753Z,33.30
2018-05-12T22:22:10.986Z,33.10
2018-05-12T22:24:40.547Z,33.10
2018-05-12T22:27:09.335Z,33.00
2018-05-12T22:29:38.369Z,32.90
2018-05-12T22:32:07.169Z,32.90
2018-05-12T22:34:36.910Z,33.00
2018-05-12T22:37:06.734Z,33.00
2018-05-12T22:39:35.554Z,33.00
2018-05-12T22:42:04.460Z,33.00
2018-05-12T22:44:33.547Z,33.00
2018-05-12T22:47:02.439Z,32.90
2018-05-12T22:49:31.359Z,32.90
2018-05-12T22:52:00.730Z,32.90
2018-05-12T22:54:29.629Z,32.80
2018-05-12T22:56:59.524Z,32.80
2018-05-12T22:59:28.838Z,32.80
2018-05-12T23:01:57.867Z,32.80
2018-05-12T23:04:27.587Z,32.90
2018-05-12T23:06:56.802Z,32.80
2018-05-12T23:09:26.589Z,32.80
2018-05-12T23:11:55.582Z,32.80
2018-05-12T23:14:24.857Z,32.70
2018-05-12T23:16:53.853Z,32.80
2018-05-12T23:19:22.950Z,32.80
2018-05-12T23:21:53.197Z,32.80
2018-05-12T23:24:22.294Z,32.80
2018-05-12T23:26:51.475Z,32.70
2018-05-12T23:29:20.680Z,32.70
2018-05-12T23:31:50.578Z,32.80
2018-05-12T23:34:19.679Z,32.70
2018-05-12T23:36:49.535Z,32.70
2018-05-12T23:39:18.478Z,32.70
2018-05-12T23:41:47.370Z,32.70
2018-05-12T23:44:16.665Z,32.70
2018-05-12T23:46:45.767Z,32.70
2018-05-12T23:49:14.934Z,32.70
2018-05-12T23:51:44.390Z,32.70
2018-05-12T23:54:13.486Z,32.70
2018-05-12T23:56:43.456Z,32.80
2018-05-12T23:59:12.935Z,32.80
